Terminal Aerodrome Forecast
Issued by NWS

Home | Current Version | Previous Version | Text Only | Print | Product List | Glossary On
Versions: 1 2 3 4 5 6 7 8 9 10
875
FTUS45 KVEF 262336
TAFBIH
TAF
KBIH 262336Z 2700/2724 35015G23KT P6SM SCT110 SCT250
     FM270600 34013KT P6SM SCT110 SCT250
     FM271800 36015G23KT P6SM SCT250=

USA.gov is the U.S. government's official web portal to all federal, state and local government web resources and services.